createdAt,value
2023-03-14T00:00:35.004Z,63.37
2023-03-14T00:03:14.196Z,63.99
2023-03-14T00:06:20.369Z,63.60
2023-03-14T00:09:07.729Z,65.89
2023-03-14T00:12:06.497Z,66.20
2023-03-14T00:14:33.529Z,65.09
2023-03-14T00:17:03.431Z,65.27
2023-03-14T00:19:31.998Z,66.00
2023-03-14T00:22:05.097Z,67.04
2023-03-14T00:24:38.956Z,65.36
2023-03-14T00:27:15.181Z,66.74
2023-03-14T00:29:51.368Z,67.64
2023-03-14T00:35:25.784Z,66.44
2023-03-14T00:38:06.017Z,65.84
2023-03-14T00:40:41.871Z,64.89
2023-03-14T00:43:43.660Z,66.04
2023-03-14T00:50:07.163Z,65.72
2023-03-14T00:52:43.356Z,65.23
2023-03-14T00:55:12.882Z,64.93
2023-03-14T00:58:08.641Z,64.20
2023-03-14T01:00:58.896Z,63.28
2023-03-14T01:03:47.133Z,62.88
2023-03-14T01:06:24.832Z,62.43
2023-03-14T01:08:59.924Z,62.59
2023-03-14T01:12:08.997Z,62.53
2023-03-14T01:14:58.404Z,62.32
2023-03-14T01:18:10.742Z,61.91
2023-03-14T01:21:15.807Z,61.50
2023-03-14T01:24:02.810Z,61.20
2023-03-14T01:26:50.402Z,60.45
2023-03-14T01:29:34.841Z,60.86
2023-03-14T01:32:09.568Z,61.14
2023-03-14T01:34:50.733Z,61.20
2023-03-14T01:37:20.089Z,60.32
2023-03-14T01:40:11.946Z,60.67
2023-03-14T01:49:20.747Z,60.44
2023-03-14T01:52:11.813Z,60.26
2023-03-14T01:55:05.912Z,59.96
2023-03-14T01:58:10.944Z,60.61
2023-03-14T02:00:40.294Z,60.12
2023-03-14T02:03:12.617Z,59.79
2023-03-14T02:05:42.149Z,60.06
2023-03-14T02:08:17.372Z,59.78
2023-03-14T02:10:47.083Z,59.93
2023-03-14T02:13:20.994Z,59.26
2023-03-14T02:15:49.342Z,60.03
2023-03-14T02:18:18.303Z,59.95
2023-03-14T02:21:06.426Z,60.40
2023-03-14T02:23:40.112Z,59.64
2023-03-14T02:26:16.111Z,59.25
2023-03-14T02:28:43.304Z,59.53
2023-03-14T02:31:14.712Z,59.19
2023-03-14T02:36:28.684Z,60.40
2023-03-14T02:39:12.206Z,58.20
2023-03-14T02:41:50.661Z,58.61
2023-03-14T02:44:18.954Z,59.26
2023-03-14T02:46:46.979Z,58.09
2023-03-14T02:49:15.528Z,58.63
2023-03-14T02:51:47.592Z,58.61
2023-03-14T02:54:21.856Z,58.65
2023-03-14T02:56:51.779Z,58.60
2023-03-14T02:59:29.558Z,58.59
2023-03-14T03:02:08.504Z,58.63
2023-03-14T03:04:38.598Z,59.68
2023-03-14T03:07:05.550Z,59.54
2023-03-14T03:09:32.443Z,59.54
2023-03-14T03:12:07.372Z,59.00
2023-03-14T03:14:48.922Z,58.61
2023-03-14T03:17:16.422Z,59.48
2023-03-14T03:19:44.043Z,59.60
2023-03-14T03:22:11.336Z,59.85
2023-03-14T03:24:41.340Z,58.88
2023-03-14T03:27:08.483Z,59.89
2023-03-14T03:29:38.653Z,59.31
2023-03-14T03:32:09.092Z,58.41
2023-03-14T03:34:36.505Z,59.09
2023-03-14T03:37:08.385Z,59.48
2023-03-14T03:39:38.100Z,59.52
2023-03-14T03:42:10.094Z,59.97
2023-03-14T03:44:41.306Z,59.62
2023-03-14T03:47:12.941Z,59.35
2023-03-14T03:49:40.195Z,59.42
2023-03-14T03:52:13.696Z,58.68
2023-03-14T03:54:40.731Z,58.71
2023-03-14T03:57:07.655Z,59.18
2023-03-14T03:59:40.028Z,59.12
2023-03-14T04:02:14.456Z,59.24
2023-03-14T04:04:49.470Z,57.95
2023-03-14T04:07:16.535Z,58.92
2023-03-14T04:09:43.516Z,57.38
2023-03-14T04:12:17.007Z,59.31
2023-03-14T04:14:52.348Z,56.23
2023-03-14T04:17:19.797Z,56.67
2023-03-14T04:19:47.896Z,57.99
2023-03-14T04:22:14.841Z,58.21
2023-03-14T04:24:41.723Z,56.16
2023-03-14T04:27:08.716Z,57.17
2023-03-14T04:29:59.006Z,59.18
2023-03-14T04:32:25.859Z,58.01
2023-03-14T04:34:52.916Z,57.39
2023-03-14T04:37:20.161Z,58.60
2023-03-14T04:39:47.036Z,58.63
2023-03-14T04:42:14.116Z,58.84
2023-03-14T04:44:44.099Z,58.41
2023-03-14T04:47:11.192Z,56.59
2023-03-14T04:49:38.077Z,58.97
2023-03-14T04:52:07.528Z,58.09
2023-03-14T04:54:36.217Z,58.17
2023-03-14T04:57:09.048Z,58.52
2023-03-14T04:59:36.016Z,58.31
2023-03-14T05:02:03.285Z,58.25
2023-03-14T05:04:36.858Z,58.34
2023-03-14T05:07:03.917Z,58.80
2023-03-14T05:09:30.871Z,58.33
2023-03-14T05:12:00.644Z,58.00
2023-03-14T05:14:27.686Z,55.86
2023-03-14T05:17:02.631Z,56.13
2023-03-14T05:19:34.173Z,56.68
2023-03-14T05:22:01.970Z,56.89
2023-03-14T05:24:33.042Z,55.03
2023-03-14T05:27:00.114Z,54.72
2023-03-14T05:29:34.193Z,54.19
2023-03-14T05:32:04.258Z,55.21
2023-03-14T05:34:31.209Z,55.87
2023-03-14T05:36:58.498Z,53.37
2023-03-14T05:39:28.852Z,55.41
2023-03-14T05:41:57.218Z,56.15
2023-03-14T05:44:32.635Z,57.05
2023-03-14T05:47:00.118Z,56.88
2023-03-14T05:49:33.580Z,56.97
2023-03-14T05:52:00.504Z,56.12
2023-03-14T05:54:29.185Z,56.06
2023-03-14T05:57:07.080Z,56.74
2023-03-14T05:59:38.350Z,56.71
2023-03-14T06:02:05.302Z,54.08
2023-03-14T06:04:32.683Z,56.11
2023-03-14T06:07:08.886Z,57.77
2023-03-14T06:12:34.251Z,56.65
2023-03-14T06:15:04.558Z,55.15
2023-03-14T06:17:34.012Z,56.66
2023-03-14T06:20:00.954Z,56.44
2023-03-14T06:22:35.509Z,55.53
2023-03-14T06:25:02.602Z,55.50
2023-03-14T06:27:32.534Z,55.77
2023-03-14T06:30:12.955Z,55.38
2023-03-14T06:32:53.438Z,55.27
2023-03-14T06:35:26.746Z,55.95
2023-03-14T06:37:56.955Z,55.71
2023-03-14T06:40:29.340Z,55.27
2023-03-14T06:42:59.024Z,55.95
2023-03-14T06:45:29.092Z,55.84
2023-03-14T06:48:04.298Z,56.12
2023-03-14T06:53:27.203Z,55.79
2023-03-14T06:56:11.100Z,55.98
2023-03-14T06:58:50.541Z,55.96
2023-03-14T07:01:30.978Z,55.01
2023-03-14T07:04:03.881Z,55.65
2023-03-14T07:06:31.801Z,55.14
2023-03-14T07:09:11.646Z,55.18
2023-03-14T07:11:46.740Z,55.54
2023-03-14T07:14:17.340Z,55.79
2023-03-14T07:16:44.307Z,55.91
2023-03-14T07:19:14.509Z,55.41
2023-03-14T07:21:44.853Z,55.66
2023-03-14T07:24:22.107Z,55.65
2023-03-14T07:26:48.963Z,55.87
2023-03-14T07:29:21.163Z,55.49
2023-03-14T07:31:48.642Z,55.92
2023-03-14T07:34:15.704Z,56.03
2023-03-14T07:36:47.445Z,55.80
2023-03-14T07:39:19.623Z,55.95
2023-03-14T07:41:50.718Z,56.12
2023-03-14T07:47:12.899Z,56.54
2023-03-14T07:49:53.808Z,56.71
2023-03-14T07:52:20.833Z,56.94
2023-03-14T07:54:50.354Z,56.62
2023-03-14T07:57:18.867Z,56.31
2023-03-14T07:59:54.959Z,56.46
2023-03-14T08:02:25.339Z,56.17
2023-03-14T08:04:55.343Z,55.89
2023-03-14T08:07:31.832Z,55.96
2023-03-14T08:10:10.718Z,55.73
2023-03-14T08:12:41.655Z,55.55
2023-03-14T08:15:10.167Z,55.00
2023-03-14T08:17:43.282Z,55.25
2023-03-14T08:20:14.846Z,55.56
2023-03-14T08:22:52.883Z,55.55
2023-03-14T08:25:27.500Z,55.46
2023-03-14T08:27:55.977Z,55.51
2023-03-14T08:30:31.041Z,55.25
2023-03-14T08:33:03.956Z,55.40
2023-03-14T08:35:33.205Z,55.90
2023-03-14T08:38:00.821Z,55.88
2023-03-14T08:40:34.099Z,56.03
2023-03-14T08:43:16.113Z,56.17
2023-03-14T08:45:50.014Z,56.25
2023-03-14T08:48:16.994Z,56.04
2023-03-14T08:50:54.715Z,56.18
2023-03-14T08:53:24.686Z,56.25
2023-03-14T08:55:55.591Z,56.28
2023-03-14T08:58:27.581Z,56.29
2023-03-14T09:00:54.597Z,56.05
2023-03-14T09:03:31.780Z,55.91
2023-03-14T09:06:08.064Z,55.81
2023-03-14T09:08:37.376Z,56.38
2023-03-14T09:11:08.795Z,56.48
2023-03-14T09:13:38.867Z,55.69
2023-03-14T09:16:18.657Z,55.95
2023-03-14T09:18:53.819Z,55.59
2023-03-14T09:21:20.839Z,55.83
2023-03-14T09:26:42.628Z,55.49
2023-03-14T09:32:12.500Z,55.74
2023-03-14T09:34:44.741Z,55.81
2023-03-14T09:37:12.794Z,55.70
2023-03-14T09:39:47.890Z,56.01
2023-03-14T09:42:33.069Z,55.57
2023-03-14T09:45:11.882Z,54.87
2023-03-14T09:47:58.513Z,54.32
2023-03-14T09:50:56.779Z,53.98
2023-03-14T09:53:40.678Z,54.01
2023-03-14T09:56:30.103Z,53.70
2023-03-14T09:59:07.992Z,53.53
2023-03-14T10:01:41.423Z,53.66
2023-03-14T10:04:15.429Z,52.88
2023-03-14T10:06:49.669Z,53.03
2023-03-14T10:09:28.316Z,53.20
2023-03-14T10:12:09.726Z,52.97
2023-03-14T10:14:45.349Z,52.80
2023-03-14T10:17:16.468Z,51.72
2023-03-14T10:20:06.528Z,51.92
2023-03-14T10:22:34.019Z,52.28
2023-03-14T10:25:36.437Z,52.80
2023-03-14T10:28:27.702Z,52.92
2023-03-14T10:30:58.763Z,53.95
2023-03-14T10:33:28.614Z,53.63
2023-03-14T10:36:01.843Z,54.23
2023-03-14T10:38:32.710Z,53.94
2023-03-14T10:41:05.014Z,53.88
2023-03-14T10:46:25.515Z,53.34
2023-03-14T10:49:04.174Z,53.88
2023-03-14T10:51:39.312Z,54.16
2023-03-14T10:54:31.755Z,54.05
2023-03-14T10:57:05.650Z,53.49
2023-03-14T10:59:46.265Z,53.32
2023-03-14T11:02:38.490Z,53.59
2023-03-14T11:05:57.929Z,52.91
2023-03-14T11:08:40.378Z,52.60
2023-03-14T11:11:26.467Z,52.67
2023-03-14T11:14:03.959Z,51.65
2023-03-14T11:16:36.960Z,51.38
2023-03-14T11:19:41.650Z,50.77
2023-03-14T11:22:20.792Z,50.95
2023-03-14T11:25:49.318Z,50.50
2023-03-14T11:28:27.917Z,50.55
2023-03-14T11:31:39.474Z,51.97
2023-03-14T11:34:36.123Z,52.78
2023-03-14T11:37:47.238Z,53.00
2023-03-14T11:40:29.131Z,52.25
2023-03-14T11:43:33.200Z,53.07
2023-03-14T11:46:34.016Z,52.66
2023-03-14T11:49:37.883Z,52.72
2023-03-14T11:52:39.941Z,53.29
2023-03-14T11:55:31.808Z,53.13
2023-03-14T11:58:20.770Z,53.20
2023-03-14T12:00:51.661Z,52.68
2023-03-14T12:03:48.388Z,53.85
2023-03-14T12:06:47.862Z,53.02
2023-03-14T12:09:28.456Z,53.45
2023-03-14T12:12:13.370Z,53.37
2023-03-14T12:14:55.842Z,52.50
2023-03-14T12:17:44.292Z,52.84
2023-03-14T12:20:25.890Z,52.83
2023-03-14T12:23:06.172Z,52.40
2023-03-14T12:26:04.122Z,52.45
2023-03-14T12:31:37.302Z,54.42
2023-03-14T12:34:18.276Z,54.50
2023-03-14T12:36:57.115Z,54.61
2023-03-14T12:39:53.766Z,54.42
2023-03-14T12:42:45.923Z,54.71
2023-03-14T12:45:18.560Z,54.95
2023-03-14T12:47:54.958Z,55.19
2023-03-14T12:50:35.152Z,54.86
2023-03-14T12:53:30.267Z,54.83
2023-03-14T12:56:32.334Z,54.99
2023-03-14T12:59:11.345Z,55.39
2023-03-14T13:01:55.665Z,53.88
2023-03-14T13:04:41.642Z,55.20
2023-03-14T13:08:07.822Z,55.85
2023-03-14T13:11:06.121Z,55.04
2023-03-14T13:13:37.009Z,54.13
2023-03-14T13:16:15.522Z,55.80
2023-03-14T13:18:52.430Z,55.04
2023-03-14T13:21:23.482Z,54.71
2023-03-14T13:24:22.118Z,53.95
2023-03-14T13:26:49.075Z,54.96
2023-03-14T13:29:21.335Z,56.49
2023-03-14T13:31:59.100Z,56.89
2023-03-14T13:34:36.977Z,56.96
2023-03-14T13:37:03.875Z,57.71
2023-03-14T13:39:38.611Z,58.32
2023-03-14T13:42:06.478Z,56.20
2023-03-14T13:44:39.591Z,57.63
2023-03-14T13:47:17.934Z,58.54
2023-03-14T13:49:45.765Z,58.29
2023-03-14T13:52:32.211Z,57.41
2023-03-14T13:58:08.924Z,59.05
2023-03-14T14:01:03.886Z,58.09
2023-03-14T14:03:38.676Z,60.03
2023-03-14T14:06:11.351Z,59.83
2023-03-14T14:08:42.341Z,58.80
2023-03-14T14:11:28.055Z,59.93
2023-03-14T14:14:00.749Z,58.87
2023-03-14T14:16:42.310Z,59.47
2023-03-14T14:19:16.220Z,60.08
2023-03-14T14:21:55.178Z,59.08
2023-03-14T14:24:50.920Z,60.26
2023-03-14T14:27:37.105Z,59.61
2023-03-14T14:30:14.010Z,60.03
2023-03-14T14:32:43.936Z,60.54
2023-03-14T14:35:26.790Z,60.66
2023-03-14T14:37:57.417Z,60.08
2023-03-14T14:40:33.532Z,60.38
2023-03-14T14:43:09.330Z,60.38
2023-03-14T14:45:40.681Z,59.69
2023-03-14T14:51:06.185Z,60.12
2023-03-14T14:53:44.526Z,60.47
2023-03-14T14:56:27.476Z,60.54
2023-03-14T14:59:01.004Z,59.95
2023-03-14T15:01:38.580Z,59.64
2023-03-14T15:04:14.945Z,59.64
2023-03-14T15:06:50.988Z,60.47
2023-03-14T15:09:31.370Z,60.71
2023-03-14T15:12:10.130Z,60.84
2023-03-14T15:14:36.954Z,60.07
2023-03-14T15:17:18.315Z,60.25
2023-03-14T15:19:45.085Z,59.48
2023-03-14T15:22:15.612Z,59.00
2023-03-14T15:24:43.457Z,58.62
2023-03-14T15:27:18.367Z,58.45
2023-03-14T15:29:48.424Z,57.30
2023-03-14T15:32:19.330Z,57.59
2023-03-14T15:34:46.187Z,58.52
2023-03-14T15:37:15.772Z,59.17
2023-03-14T15:39:57.377Z,57.08
2023-03-14T15:42:24.211Z,56.69
2023-03-14T15:44:54.069Z,57.05
2023-03-14T15:47:26.287Z,56.82
2023-03-14T15:49:56.610Z,56.18
2023-03-14T15:55:05.891Z,56.89
2023-03-14T15:57:34.391Z,57.34
2023-03-14T16:00:01.332Z,57.43
2023-03-14T16:02:31.215Z,58.06
2023-03-14T16:04:57.988Z,58.05
2023-03-14T16:07:24.865Z,58.34
2023-03-14T16:09:51.642Z,57.77
2023-03-14T16:12:20.585Z,57.65
2023-03-14T16:14:49.813Z,58.05
2023-03-14T16:17:19.390Z,57.58
2023-03-14T16:19:48.243Z,57.82
2023-03-14T16:22:15.936Z,57.85
2023-03-14T16:24:45.706Z,58.40
2023-03-14T16:27:18.610Z,58.19
2023-03-14T16:30:16.826Z,57.89
2023-03-14T16:32:47.224Z,57.60
2023-03-14T16:35:21.589Z,58.69
2023-03-14T16:37:57.131Z,58.81
2023-03-14T16:40:34.522Z,58.87
2023-03-14T16:43:16.041Z,59.70
2023-03-14T16:45:44.705Z,59.79
2023-03-14T16:48:17.107Z,60.01
2023-03-14T16:50:44.169Z,59.66
2023-03-14T16:53:27.284Z,59.70
2023-03-14T16:56:11.374Z,59.97
2023-03-14T16:58:45.919Z,59.67
2023-03-14T17:03:48.304Z,59.41
2023-03-14T17:06:19.908Z,59.39
2023-03-14T17:08:46.792Z,59.87
2023-03-14T17:11:30.181Z,59.11
2023-03-14T17:14:04.157Z,59.28
2023-03-14T17:16:32.895Z,59.25
2023-03-14T17:19:04.659Z,59.73
2023-03-14T17:21:31.916Z,59.68
2023-03-14T17:23:58.654Z,59.57
2023-03-14T17:26:25.420Z,60.34
2023-03-14T17:28:55.559Z,59.54
2023-03-14T17:31:33.093Z,60.64
2023-03-14T17:34:05.370Z,59.89
2023-03-14T17:36:33.008Z,59.45
2023-03-14T17:39:00.940Z,60.87
2023-03-14T17:41:31.901Z,60.83
2023-03-14T17:44:05.224Z,60.10
2023-03-14T17:46:32.275Z,60.51
2023-03-14T17:48:59.087Z,60.55
2023-03-14T17:51:25.868Z,60.28
2023-03-14T17:54:09.146Z,60.41
2023-03-14T17:56:37.218Z,60.03
2023-03-14T17:59:08.009Z,59.57
2023-03-14T18:04:17.852Z,60.64
2023-03-14T18:06:47.841Z,60.39
2023-03-14T18:09:17.903Z,60.38
2023-03-14T18:11:44.949Z,61.00
2023-03-14T18:14:21.230Z,61.21
2023-03-14T18:16:54.510Z,60.74
2023-03-14T18:19:21.619Z,60.96
2023-03-14T18:21:48.497Z,60.95
2023-03-14T18:24:15.380Z,60.86
2023-03-14T18:26:48.638Z,61.14
2023-03-14T18:29:21.724Z,60.90
2023-03-14T18:31:56.092Z,61.14
2023-03-14T18:34:22.782Z,61.54
2023-03-14T18:36:49.910Z,61.58
2023-03-14T18:39:16.748Z,61.49
2023-03-14T18:41:49.074Z,61.44
2023-03-14T18:44:15.772Z,61.58
2023-03-14T18:46:42.781Z,61.85
2023-03-14T18:49:20.189Z,61.58
2023-03-14T18:51:47.622Z,61.29
2023-03-14T18:54:19.404Z,61.17
2023-03-14T18:56:50.298Z,60.76
2023-03-14T18:59:20.094Z,60.79
2023-03-14T19:01:50.036Z,61.39
2023-03-14T19:04:19.462Z,61.27
2023-03-14T19:06:55.146Z,60.63
2023-03-14T19:09:21.994Z,60.79
2023-03-14T19:11:53.014Z,61.16
2023-03-14T19:14:23.625Z,61.37
2023-03-14T19:16:50.684Z,61.60
2023-03-14T19:19:22.149Z,61.19
2023-03-14T19:21:51.473Z,61.43
2023-03-14T19:24:23.127Z,63.02
2023-03-14T19:26:51.174Z,64.67
2023-03-14T19:29:23.021Z,63.41
2023-03-14T19:31:51.570Z,63.96
2023-03-14T19:34:24.441Z,64.65
2023-03-14T19:36:55.707Z,64.65
2023-03-14T19:39:22.427Z,66.41
2023-03-14T19:41:49.326Z,65.86
2023-03-14T19:44:16.356Z,64.75
2023-03-14T19:46:43.602Z,65.25
2023-03-14T19:49:11.714Z,64.75
2023-03-14T19:51:41.540Z,65.44
2023-03-14T19:54:14.924Z,68.59
2023-03-14T19:56:44.827Z,67.71
2023-03-14T19:59:20.861Z,67.85
2023-03-14T20:01:51.090Z,67.30
2023-03-14T20:04:17.891Z,66.92
2023-03-14T20:06:47.979Z,65.51
2023-03-14T20:09:14.819Z,65.91
2023-03-14T20:11:57.533Z,68.89
2023-03-14T20:14:26.222Z,69.58
2023-03-14T20:17:09.068Z,68.08
2023-03-14T20:19:37.688Z,69.99
2023-03-14T20:22:18.444Z,71.66
2023-03-14T20:24:49.755Z,75.21
2023-03-14T20:27:16.985Z,75.00
2023-03-14T20:29:46.945Z,75.82
2023-03-14T20:32:25.165Z,76.17
2023-03-14T20:34:55.293Z,77.00
2023-03-14T20:37:23.451Z,78.00
2023-03-14T20:39:51.362Z,74.90
2023-03-14T20:42:25.325Z,72.44
2023-03-14T20:44:55.253Z,78.02
2023-03-14T20:47:22.141Z,78.88
2023-03-14T20:49:51.565Z,80.64
2023-03-14T20:52:18.868Z,81.21
2023-03-14T20:54:46.835Z,80.27
2023-03-14T20:57:15.793Z,80.78
2023-03-14T20:59:42.652Z,82.25
2023-03-14T21:05:02.333Z,79.77
2023-03-14T21:07:49.675Z,78.77
2023-03-14T21:10:17.877Z,77.97
2023-03-14T21:12:51.529Z,78.93
2023-03-14T21:15:20.390Z,78.94
2023-03-14T21:18:28.184Z,78.81
2023-03-14T21:20:57.952Z,81.22
2023-03-14T21:23:27.952Z,80.04
2023-03-14T21:26:07.003Z,78.98
2023-03-14T21:28:47.627Z,79.29
2023-03-14T21:33:58.248Z,78.93
2023-03-14T21:36:25.195Z,78.91
2023-03-14T21:39:11.532Z,78.43
2023-03-14T21:41:43.436Z,78.96
2023-03-14T21:44:13.972Z,78.47
2023-03-14T21:46:46.303Z,79.58
2023-03-14T21:49:41.365Z,80.00
2023-03-14T21:52:14.201Z,79.82
2023-03-14T21:54:51.424Z,79.65
2023-03-14T21:57:18.131Z,80.01
2023-03-14T21:59:46.754Z,79.64
2023-03-14T22:02:18.696Z,79.83
2023-03-14T22:04:52.437Z,80.72
2023-03-14T22:07:21.629Z,80.36
2023-03-14T22:09:50.442Z,80.67
2023-03-14T22:12:29.653Z,80.39
2023-03-14T22:14:56.338Z,79.86
2023-03-14T22:17:23.136Z,79.77
2023-03-14T22:20:01.492Z,80.12
2023-03-14T22:22:37.742Z,80.30
2023-03-14T22:25:09.333Z,80.47
2023-03-14T22:27:36.073Z,80.31
2023-03-14T22:30:03.541Z,80.68
2023-03-14T22:32:53.120Z,80.82
2023-03-14T22:35:21.780Z,80.24
2023-03-14T22:37:51.404Z,81.46
2023-03-14T22:40:19.914Z,80.71
2023-03-14T22:42:48.492Z,80.60
2023-03-14T22:45:49.633Z,80.46
2023-03-14T22:48:16.623Z,80.24
2023-03-14T22:50:46.712Z,80.88
2023-03-14T22:53:25.709Z,80.95
2023-03-14T22:56:04.279Z,80.53
2023-03-14T22:58:31.862Z,80.94
2023-03-14T23:01:01.878Z,80.92
2023-03-14T23:03:35.573Z,78.92
2023-03-14T23:06:11.765Z,78.57
2023-03-14T23:08:41.886Z,78.78
2023-03-14T23:11:17.977Z,79.15
2023-03-14T23:13:54.416Z,79.21
2023-03-14T23:16:30.370Z,78.74
2023-03-14T23:19:08.374Z,78.77
2023-03-14T23:21:38.656Z,78.89
2023-03-14T23:24:08.728Z,77.86
2023-03-14T23:26:38.261Z,79.22
2023-03-14T23:29:08.565Z,78.40
2023-03-14T23:31:37.750Z,78.08
2023-03-14T23:34:04.459Z,77.87
2023-03-14T23:36:31.729Z,77.96
2023-03-14T23:39:01.306Z,78.05
2023-03-14T23:41:30.441Z,77.74
2023-03-14T23:43:58.901Z,78.18
2023-03-14T23:46:35.802Z,78.07
2023-03-14T23:49:02.597Z,78.24
2023-03-14T23:51:30.421Z,78.80
2023-03-14T23:54:00.054Z,78.74
2023-03-14T23:56:33.089Z,79.31
2023-03-14T23:59:01.984Z,79.90
